Time;durP1;ratioP1;P1;durP2;ratioP2;P2;SDS_P1;SDS_P2;PMS_P1;PMS_P2;Temp;Humidity;BMP_temperature;BMP_pressure;BME280_temperature;BME280_humidity;BME280_pressure;Samples;Min_cycle;Max_cycle;Signal;HPM_P1;HPM_P2
2021/11/06 00:00:25;;;;;;;;;23.00;15.00;;;;;16.13;97.89;102625.50;5032081;28;45331;-82
2021/11/06 00:02:51;;;;;;;;;25.50;16.50;;;;;16.18;97.47;102623.44;5044296;28;45332;-82
2021/11/06 00:05:17;;;;;;;;;19.50;18.75;;;;;16.22;97.02;102632.94;5046375;28;45663;-82
2021/11/06 00:07:43;;;;;;;;;21.75;17.25;;;;;16.16;97.45;102622.66;5048091;28;45534;-82
2021/11/06 00:10:11;;;;;;;;;20.00;17.75;;;;;16.21;97.24;102630.34;5036066;28;45511;-83
2021/11/06 00:12:38;;;;;;;;;19.75;18.25;;;;;16.17;97.11;102623.50;5049091;28;48529;-81
2021/11/06 00:15:05;;;;;;;;;26.25;20.00;;;;;16.27;97.10;102636.19;5064827;28;45382;-81
2021/11/06 00:17:31;;;;;;;;;25.25;20.50;;;;;16.20;97.15;102631.34;5052813;28;45759;-82
2021/11/06 00:19:56;;;;;;;;;24.25;19.50;;;;;16.24;97.18;102635.50;5052597;28;45492;-82
2021/11/06 00:22:22;;;;;;;;;25.00;22.50;;;;;16.09;97.93;102639.97;5061373;28;46259;-82
2021/11/06 00:24:47;;;;;;;;;25.25;15.50;;;;;15.99;99.61;102642.34;5061483;28;45528;-82
2021/11/06 00:27:13;;;;;;;;;21.50;16.25;;;;;15.97;98.07;102638.91;5059328;28;45407;-82
2021/11/06 00:29:38;;;;;;;;;20.25;17.75;;;;;16.11;98.61;102642.56;5044785;28;45954;-82
2021/11/06 00:32:04;;;;;;;;;26.25;18.75;;;;;16.06;99.21;102654.34;5053422;28;45360;-82
2021/11/06 00:34:29;;;;;;;;;20.25;19.00;;;;;15.86;98.96;102649.34;5060779;28;47116;-82
2021/11/06 00:36:55;;;;;;;;;19.00;16.25;;;;;15.85;98.57;102642.28;5045364;28;45476;-82
2021/11/06 00:39:20;;;;;;;;;18.75;16.75;;;;;15.80;99.53;102633.72;5052938;28;45504;-82
2021/11/06 00:41:45;;;;;;;;;20.50;18.50;;;;;15.71;99.15;102643.13;5043021;28;46072;-82
2021/11/06 00:44:11;;;;;;;;;29.00;19.50;;;;;15.71;99.56;102629.78;5046447;28;45279;-82
2021/11/06 00:46:36;;;;;;;;;21.25;19.00;;;;;15.70;99.63;102632.53;5053975;28;45353;-82
2021/11/06 00:49:02;;;;;;;;;24.75;16.25;;;;;15.64;99.79;102630.25;5054794;28;45521;-82
2021/11/06 00:51:28;;;;;;;;;24.50;20.75;;;;;15.66;99.82;102637.19;5058126;28;45504;-82
2021/11/06 00:53:54;;;;;;;;;26.75;20.00;;;;;15.43;100.00;102629.66;5055354;28;45351;-82
2021/11/06 00:56:19;;;;;;;;;20.25;18.00;;;;;15.33;100.00;102633.78;5033663;28;45641;-82
2021/11/06 00:58:45;;;;;;;;;23.50;19.75;;;;;15.40;100.00;102636.94;5053771;28;45570;-82
2021/11/06 01:01:10;;;;;;;;;22.50;19.00;;;;;15.31;100.00;102627.69;5058500;28;45355;-83
2021/11/06 01:03:38;;;;;;;;;24.50;19.25;;;;;15.35;100.00;102619.47;5055037;28;45381;-86
2021/11/06 01:06:03;;;;;;;;;26.25;20.00;;;;;15.42;100.00;102629.75;5024339;28;45449;-86
2021/11/06 01:08:29;;;;;;;;;19.50;18.50;;;;;15.45;100.00;102618.94;5032494;28;45434;-87
2021/11/06 01:10:54;;;;;;;;;20.00;19.50;;;;;15.41;100.00;102604.94;5051502;28;46043;-86
2021/11/06 01:13:20;;;;;;;;;20.25;18.25;;;;;15.43;100.00;102611.03;5035674;28;45531;-86
2021/11/06 01:15:46;;;;;;;;;21.50;19.75;;;;;15.31;100.00;102611.72;5052973;28;45673;-87
2021/11/06 01:18:12;;;;;;;;;24.75;20.75;;;;;15.34;100.00;102630.19;5026933;28;45326;-87
2021/11/06 01:20:37;;;;;;;;;24.25;18.25;;;;;15.43;100.00;102623.47;5043315;28;46358;-87
2021/11/06 01:23:03;;;;;;;;;23.00;17.50;;;;;15.39;100.00;102625.44;5052101;28;45451;-87
2021/11/06 01:25:28;;;;;;;;;20.25;17.75;;;;;15.37;100.00;102614.06;5052049;28;45434;-86
2021/11/06 01:27:54;;;;;;;;;20.75;15.50;;;;;15.51;100.00;102621.22;5028236;28;45281;-87
2021/11/06 01:30:20;;;;;;;;;23.25;16.50;;;;;15.45;100.00;102611.81;5047841;28;45427;-87
2021/11/06 01:32:46;;;;;;;;;14.75;11.00;;;;;15.46;100.00;102612.66;5064601;28;45268;-86
2021/11/06 01:35:13;;;;;;;;;24.00;18.50;;;;;15.47;100.00;102622.38;5046680;28;45321;-87
2021/11/06 01:37:42;;;;;;;;;20.75;14.25;;;;;15.35;100.00;102626.59;5059381;28;45529;-87
2021/11/06 01:40:10;;;;;;;;;18.50;17.25;;;;;15.40;100.00;102618.31;5048208;28;45297;-86
2021/11/06 01:42:35;;;;;;;;;18.00;18.00;;;;;15.34;100.00;102614.22;5040861;28;45939;-87
2021/11/06 01:45:01;;;;;;;;;18.00;15.50;;;;;15.33;100.00;102600.06;5053157;28;45393;-87
2021/11/06 01:47:27;;;;;;;;;19.00;14.50;;;;;15.39;100.00;102609.47;5040369;28;45851;-87
2021/11/06 01:49:52;;;;;;;;;19.50;14.50;;;;;15.33;100.00;102608.03;5042977;28;45482;-86
2021/11/06 01:52:17;;;;;;;;;18.50;15.00;;;;;15.31;100.00;102609.91;5045844;28;45470;-86
2021/11/06 01:54:43;;;;;;;;;19.25;17.50;;;;;15.31;100.00;102612.59;5045325;28;45443;-86
2021/11/06 01:57:09;;;;;;;;;19.50;16.50;;;;;15.37;100.00;102611.38;5055350;28;45473;-87
2021/11/06 01:59:37;;;;;;;;;17.50;14.75;;;;;15.36;100.00;102599.03;5048998;28;46176;-87
2021/11/06 02:02:02;;;;;;;;;14.75;13.00;;;;;15.34;100.00;102599.09;5045194;28;45339;-87
2021/11/06 02:04:28;;;;;;;;;12.50;12.25;;;;;15.48;100.00;102614.25;5042312;28;45500;-87
2021/11/06 02:06:53;;;;;;;;;17.50;13.50;;;;;15.42;100.00;102606.63;5047631;28;45325;-87
2021/11/06 02:09:19;;;;;;;;;18.00;14.00;;;;;15.42;100.00;102603.97;5039352;28;47893;-86
2021/11/06 02:11:45;;;;;;;;;22.50;17.75;;;;;15.33;100.00;102617.81;5050166;28;45230;-87
2021/11/06 02:14:10;;;;;;;;;21.00;17.25;;;;;15.28;100.00;102614.59;5038604;28;45325;-86
2021/11/06 02:16:36;;;;;;;;;19.00;16.75;;;;;15.28;100.00;102617.25;5025788;28;45241;-86
2021/11/06 02:19:02;;;;;;;;;22.75;17.75;;;;;15.26;100.00;102612.00;5028961;28;47298;-86
2021/11/06 02:21:28;;;;;;;;;19.00;17.00;;;;;15.25;100.00;102609.44;5022413;28;45431;-87
2021/11/06 02:23:54;;;;;;;;;19.50;18.00;;;;;15.26;100.00;102627.13;5026473;28;45426;-86
2021/11/06 02:26:22;;;;;;;;;20.50;17.25;;;;;15.22;100.00;102620.22;5039956;28;45465;-87
2021/11/06 02:28:51;;;;;;;;;21.75;18.00;;;;;15.19;100.00;102621.28;5045003;28;46199;-87
2021/11/06 02:31:17;;;;;;;;;25.00;18.00;;;;;15.18;100.00;102618.72;5054248;28;45550;-86
2021/11/06 02:33:42;;;;;;;;;22.50;16.25;;;;;15.16;100.00;102615.28;5031041;28;45495;-86
2021/11/06 02:36:08;;;;;;;;;25.00;19.00;;;;;15.10;100.00;102612.97;5054192;28;45307;-87
2021/11/06 02:38:33;;;;;;;;;20.50;17.25;;;;;15.12;100.00;102619.03;5050201;28;45567;-86
2021/11/06 02:40:59;;;;;;;;;22.75;17.75;;;;;15.04;100.00;102602.66;5046394;28;45416;-87
2021/11/06 02:43:25;;;;;;;;;20.50;17.75;;;;;15.05;100.00;102610.56;5025936;28;45511;-87
2021/11/06 02:45:50;;;;;;;;;18.50;17.00;;;;;15.14;100.00;102611.84;5053653;28;45444;-86
2021/11/06 02:48:16;;;;;;;;;19.25;15.25;;;;;15.09;100.00;102598.81;5061700;28;45438;-87
2021/11/06 02:50:42;;;;;;;;;17.50;14.25;;;;;15.10;100.00;102589.03;5045369;28;45529;-86
2021/11/06 02:53:07;;;;;;;;;22.25;17.75;;;;;15.13;100.00;102596.81;5057842;28;45221;-87
2021/11/06 02:55:32;;;;;;;;;18.00;16.25;;;;;15.08;100.00;102599.75;5037651;28;45709;-86
2021/11/06 02:57:58;;;;;;;;;21.50;19.00;;;;;15.13;100.00;102599.47;5041755;28;47267;-87
2021/11/06 03:00:27;;;;;;;;;17.00;14.75;;;;;15.08;100.00;102588.25;5052356;28;45260;-87
2021/11/06 03:02:54;;;;;;;;;18.25;15.25;;;;;15.08;100.00;102605.06;5044488;28;45486;-86
2021/11/06 03:05:20;;;;;;;;;20.75;15.25;;;;;15.01;100.00;102598.38;5024603;28;45537;-86
2021/11/06 03:07:45;;;;;;;;;17.00;15.00;;;;;15.02;100.00;102601.91;5046552;28;46107;-86
2021/11/06 03:10:13;;;;;;;;;16.75;14.25;;;;;15.10;100.00;102603.19;5038092;28;46105;-86
2021/11/06 03:12:39;;;;;;;;;16.75;13.25;;;;;15.06;100.00;102608.75;5044175;28;45238;-86
2021/11/06 03:15:05;;;;;;;;;23.25;17.75;;;;;15.10;100.00;102610.31;5062582;28;45367;-87
2021/11/06 03:17:31;;;;;;;;;15.25;13.75;;;;;15.04;100.00;102614.16;5059748;28;46388;-86
2021/11/06 03:19:56;;;;;;;;;21.25;13.50;;;;;15.10;100.00;102619.16;5037093;28;45697;-86
2021/11/06 03:22:22;;;;;;;;;17.25;13.75;;;;;15.06;100.00;102616.75;5026127;28;45420;-86
2021/11/06 03:24:47;;;;;;;;;19.25;14.50;;;;;15.04;100.00;102618.63;5037307;28;45514;-86
2021/11/06 03:27:14;;;;;;;;;18.00;14.00;;;;;14.99;100.00;102624.22;5058404;28;45450;-86
2021/11/06 03:29:39;;;;;;;;;19.75;16.50;;;;;14.92;100.00;102613.06;5047501;28;45419;-86
2021/11/06 03:32:06;;;;;;;;;18.50;13.25;;;;;14.97;100.00;102615.44;5056898;28;45372;-86
2021/11/06 03:34:32;;;;;;;;;23.75;15.25;;;;;14.92;100.00;102612.22;5026855;28;45542;-87
2021/11/06 03:36:57;;;;;;;;;14.75;13.75;;;;;14.93;100.00;102608.59;5051641;28;45267;-86
2021/11/06 03:39:24;;;;;;;;;18.00;14.50;;;;;14.96;100.00;102616.41;5054384;28;45438;-86
2021/11/06 03:41:49;;;;;;;;;15.75;14.75;;;;;14.88;100.00;102606.19;5024214;28;45337;-86
2021/11/06 03:44:15;;;;;;;;;22.00;15.25;;;;;14.85;100.00;102624.09;5027500;28;45661;-86
2021/11/06 03:46:41;;;;;;;;;18.50;13.50;;;;;14.79;100.00;102616.47;5050535;28;46842;-86
2021/11/06 03:49:06;;;;;;;;;17.75;15.25;;;;;14.78;100.00;102612.09;5053440;27;45328;-87
2021/11/06 03:51:32;;;;;;;;;22.00;13.50;;;;;14.76;100.00;102604.19;5030820;28;45348;-86
2021/11/06 03:53:58;;;;;;;;;21.25;15.75;;;;;14.80;100.00;102613.75;5023122;28;45565;-86
2021/11/06 03:56:23;;;;;;;;;16.75;11.75;;;;;14.81;100.00;102609.28;5051134;28;45485;-86
2021/11/06 03:58:50;;;;;;;;;14.50;14.25;;;;;14.85;100.00;102614.31;5057809;28;45508;-86
2021/11/06 04:01:16;;;;;;;;;20.25;13.00;;;;;14.79;100.00;102613.81;5055178;28;45344;-87
2021/11/06 04:03:42;;;;;;;;;20.00;13.75;;;;;14.79;100.00;102629.78;5049232;28;45522;-87
2021/11/06 04:06:07;;;;;;;;;18.00;16.25;;;;;14.79;100.00;102619.13;5064294;28;45297;-86
2021/11/06 04:08:33;;;;;;;;;20.75;15.50;;;;;14.88;100.00;102621.28;5044803;28;45399;-86
2021/11/06 04:10:58;;;;;;;;;14.00;13.75;;;;;14.86;100.00;102626.69;5057449;28;45782;-86
2021/11/06 04:13:24;;;;;;;;;20.25;14.00;;;;;14.83;100.00;102623.34;5037862;28;45673;-86
2021/11/06 04:15:49;;;;;;;;;21.25;14.00;;;;;14.83;100.00;102623.34;5061075;28;45435;-87
2021/11/06 04:18:15;;;;;;;;;17.25;13.00;;;;;14.83;100.00;102620.69;5039310;28;45636;-86
2021/11/06 04:20:41;;;;;;;;;19.75;15.25;;;;;14.88;100.00;102634.59;5045013;28;45300;-87
2021/11/06 04:23:07;;;;;;;;;19.00;13.00;;;;;14.81;100.00;102623.44;5050263;28;45518;-87
2021/11/06 04:25:32;;;;;;;;;18.75;13.75;;;;;14.83;100.00;102628.69;5048189;28;46279;-86
2021/11/06 04:27:58;;;;;;;;;12.25;11.25;;;;;14.92;100.00;102641.47;5036083;28;45277;-86
2021/11/06 04:30:24;;;;;;;;;15.25;12.00;;;;;14.84;100.00;102635.72;5054530;28;45388;-86
2021/11/06 04:32:49;;;;;;;;;18.75;15.00;;;;;14.84;100.00;102636.53;5040038;28;44901;-86
2021/11/06 04:35:15;;;;;;;;;17.50;15.75;;;;;14.86;100.00;102640.00;5055454;28;46087;-86
2021/11/06 04:37:40;;;;;;;;;13.00;11.25;;;;;14.80;100.00;102643.00;5055147;28;45478;-86
2021/11/06 04:40:07;;;;;;;;;16.75;11.75;;;;;14.98;100.00;102647.31;5068172;28;45041;-86
2021/11/06 04:42:33;;;;;;;;;15.75;12.00;;;;;14.83;100.00;102634.88;5066786;28;44811;-86
2021/11/06 04:44:59;;;;;;;;;12.00;11.00;;;;;14.79;100.00;102643.06;5072897;28;45533;-86
2021/11/06 04:47:24;;;;;;;;;14.75;13.00;;;;;14.98;100.00;102641.97;5062002;28;44742;-86
2021/11/06 04:49:50;;;;;;;;;12.75;12.00;;;;;15.08;100.00;102644.13;5073489;28;45387;-87
2021/11/06 04:52:15;;;;;;;;;19.50;12.75;;;;;15.11;100.00;102647.47;5044757;28;44873;-86
2021/11/06 04:54:41;;;;;;;;;11.25;11.25;;;;;14.97;100.00;102628.75;5023604;28;48351;-87
2021/11/06 04:57:06;;;;;;;;;20.00;14.00;;;;;14.97;100.00;102640.25;5051989;28;45308;-86
2021/11/06 04:59:32;;;;;;;;;14.25;13.25;;;;;15.03;100.00;102641.69;5049143;28;45530;-86
2021/11/06 05:01:57;;;;;;;;;16.00;11.00;;;;;15.04;100.00;102651.41;5049701;28;45383;-86
2021/11/06 05:04:23;;;;;;;;;14.00;12.75;;;;;15.00;100.00;102644.56;5036314;28;45993;-86
2021/11/06 05:06:49;;;;;;;;;16.00;12.00;;;;;15.01;100.00;102646.28;5041092;28;45412;-86
2021/11/06 05:09:15;;;;;;;;;10.50;9.00;;;;;14.96;100.00;102640.34;5046645;28;45403;-86
2021/11/06 05:11:40;;;;;;;;;10.50;9.50;;;;;14.95;100.00;102642.13;5034708;28;45961;-86
2021/11/06 05:14:06;;;;;;;;;11.00;7.75;;;;;14.92;100.00;102637.00;5056246;28;45328;-87
2021/11/06 05:16:33;;;;;;;;;9.50;7.75;;;;;14.86;100.00;102649.78;5055675;28;45437;-86
2021/11/06 05:18:58;;;;;;;;;12.25;11.25;;;;;14.86;100.00;102644.44;5037359;28;45633;-86
2021/11/06 05:21:24;;;;;;;;;12.50;9.00;;;;;14.86;100.00;102641.78;5062147;28;45208;-86
2021/11/06 05:23:50;;;;;;;;;18.25;12.00;;;;;14.96;100.00;102625.22;5056887;28;46277;-86
2021/11/06 05:26:16;;;;;;;;;14.00;12.00;;;;;14.99;100.00;102637.53;5060468;28;45313;-86
2021/11/06 05:28:42;;;;;;;;;15.00;12.25;;;;;14.71;100.00;102632.88;5056614;28;45224;-87
2021/11/06 05:31:11;;;;;;;;;16.00;11.50;;;;;14.77;100.00;102629.84;5060383;28;45475;-86
2021/11/06 05:33:37;;;;;;;;;11.50;11.00;;;;;14.74;100.00;102639.81;5036163;28;47042;-86
2021/11/06 05:36:03;;;;;;;;;12.50;10.00;;;;;14.77;100.00;102634.31;5041844;28;45460;-86
2021/11/06 05:38:29;;;;;;;;;16.25;11.00;;;;;14.68;100.00;102627.69;5047540;28;45473;-86
2021/11/06 05:40:54;;;;;;;;;13.50;11.75;;;;;14.66;100.00;102621.59;5047775;28;45503;-86
2021/11/06 05:43:20;;;;;;;;;17.50;11.75;;;;;14.66;100.00;102634.91;5042575;28;45328;-86
2021/11/06 05:45:45;;;;;;;;;11.25;10.25;;;;;14.66;100.00;102629.59;5040374;28;45288;-86
2021/11/06 05:48:11;;;;;;;;;17.00;12.00;;;;;14.64;100.00;102627.97;5026545;28;45317;-86
2021/11/06 05:50:36;;;;;;;;;16.25;11.50;;;;;14.64;100.00;102623.50;5038118;28;45607;-86
2021/11/06 05:53:02;;;;;;;;;20.75;11.25;;;;;14.71;100.00;102627.53;5036620;28;46549;-86
2021/11/06 05:55:27;;;;;;;;;13.25;12.75;;;;;14.69;100.00;102633.88;5023892;28;45480;-86
2021/11/06 05:57:53;;;;;;;;;15.25;9.50;;;;;14.71;100.00;102629.34;5034910;28;45514;-86
2021/11/06 06:00:20;;;;;;;;;21.25;14.00;;;;;14.83;100.00;102636.66;5052062;28;45506;-86
2021/11/06 06:02:46;;;;;;;;;17.00;13.00;;;;;14.69;100.00;102626.75;5048292;28;45600;-86
2021/11/06 06:05:13;;;;;;;;;14.25;12.75;;;;;14.68;100.00;102634.81;5058906;28;45576;-86
2021/11/06 06:07:40;;;;;;;;;17.75;13.00;;;;;14.69;100.00;102652.50;5055300;28;45575;-85
2021/11/06 06:10:11;;;;;;;;;17.50;13.00;;;;;14.70;100.00;102646.25;5052619;28;45518;-86
2021/11/06 06:12:37;;;;;;;;;13.50;12.75;;;;;14.68;100.00;102648.97;5024950;28;47126;-86
2021/11/06 06:15:04;;;;;;;;;22.75;16.50;;;;;14.71;100.00;102646.16;5027181;28;45589;-86
2021/11/06 06:17:29;;;;;;;;;21.25;15.25;;;;;14.67;100.00;102646.41;5046234;28;45262;-86
2021/11/06 06:19:55;;;;;;;;;19.25;16.00;;;;;14.70;100.00;102648.91;5050435;28;45296;-86
2021/11/06 06:22:22;;;;;;;;;18.75;14.75;;;;;14.71;100.00;102656.78;5039177;28;46257;-86
2021/11/06 06:24:51;;;;;;;;;16.75;12.00;;;;;14.68;100.00;102656.09;5035264;28;45706;-86
2021/11/06 06:27:17;;;;;;;;;22.75;15.00;;;;;14.71;100.00;102666.56;5060653;28;45320;-86
2021/11/06 06:29:42;;;;;;;;;19.50;11.50;;;;;14.63;100.00;102658.16;5053763;28;45478;-86
2021/11/06 06:32:08;;;;;;;;;20.00;16.00;;;;;14.63;100.00;102664.34;5055708;28;46279;-86
2021/11/06 06:34:34;;;;;;;;;11.50;6.75;;;;;14.61;100.00;102671.53;5032371;28;45431;-86
2021/11/06 06:36:59;;;;;;;;;18.25;17.25;;;;;14.57;100.00;102665.50;5061810;28;45263;-86
2021/11/06 06:39:24;;;;;;;;;19.00;17.00;;;;;14.58;100.00;102675.19;5039976;28;45277;-86
2021/11/06 06:41:50;;;;;;;;;14.25;13.50;;;;;14.54;100.00;102673.66;5041237;28;45380;-86
2021/11/06 06:44:15;;;;;;;;;17.50;15.75;;;;;14.54;100.00;102680.78;5050788;28;45632;-86
2021/11/06 06:46:41;;;;;;;;;17.75;15.50;;;;;14.48;100.00;102673.97;5033975;28;45254;-86
2021/11/06 06:49:06;;;;;;;;;19.25;18.00;;;;;14.51;100.00;102676.47;5045062;28;45250;-86
2021/11/06 06:51:32;;;;;;;;;17.50;13.50;;;;;14.52;100.00;102678.19;5048942;28;46432;-86
2021/11/06 06:53:57;;;;;;;;;18.50;16.50;;;;;14.51;100.00;102672.97;5043014;28;45487;-86
2021/11/06 06:56:23;;;;;;;;;15.75;13.00;;;;;14.46;100.00;102689.16;5048494;28;45420;-86
2021/11/06 06:58:48;;;;;;;;;21.25;16.00;;;;;14.48;100.00;102673.97;5052879;28;45364;-86
2021/11/06 07:01:14;;;;;;;;;19.25;16.00;;;;;14.53;100.00;102685.25;5043461;28;46298;-86
2021/11/06 07:03:39;;;;;;;;;23.25;17.25;;;;;14.47;100.00;102680.25;5048510;28;45443;-86
2021/11/06 07:06:05;;;;;;;;;22.00;17.00;;;;;14.56;100.00;102682.44;5048178;28;45863;-86
2021/11/06 07:08:30;;;;;;;;;21.00;16.50;;;;;14.57;100.00;102678.78;5052232;28;45506;-86
2021/11/06 07:10:56;;;;;;;;;18.75;13.75;;;;;14.77;100.00;102683.06;5039946;28;45453;-86
2021/11/06 07:13:21;;;;;;;;;18.00;14.25;;;;;14.73;100.00;102680.66;5032050;28;45179;-87
2021/11/06 07:15:51;;;;;;;;;24.50;17.75;;;;;14.79;100.00;102686.50;5029251;28;45317;-86
2021/11/06 07:18:16;;;;;;;;;22.00;17.00;;;;;14.69;100.00;102690.59;5049433;28;45404;-85
2021/11/06 07:20:42;;;;;;;;;16.25;15.50;;;;;14.68;100.00;102694.19;5054136;28;45421;-87
2021/11/06 07:23:09;;;;;;;;;17.00;15.00;;;;;14.79;100.00;102686.50;5032635;28;45522;-87
2021/11/06 07:25:35;;;;;;;;;14.50;12.00;;;;;14.79;100.00;102681.16;5054220;28;45441;-87
2021/11/06 07:28:00;;;;;;;;;18.00;14.75;;;;;14.69;100.00;102687.94;5035168;28;46091;-86
2021/11/06 07:30:26;;;;;;;;;19.50;12.50;;;;;14.66;100.00;102690.75;5061504;28;46115;-86
2021/11/06 07:32:52;;;;;;;;;12.25;12.25;;;;;14.57;100.00;102678.78;5054804;28;45321;-86
2021/11/06 07:35:19;;;;;;;;;13.75;12.00;;;;;14.62;100.00;102680.38;5062653;28;45223;-85
2021/11/06 07:37:45;;;;;;;;;14.00;12.50;;;;;14.67;100.00;102686.28;5045849;28;45416;-86
2021/11/06 07:40:12;;;;;;;;;18.75;13.00;;;;;14.60;99.57;102678.66;5047800;28;45400;-85
2021/11/06 07:42:40;;;;;;;;;24.50;15.50;;;;;14.72;99.60;102693.09;5046333;28;45412;-86
2021/11/06 07:45:09;;;;;;;;;16.00;12.00;;;;;14.79;98.71;102688.28;5047767;28;45340;-86
2021/11/06 07:47:34;;;;;;;;;14.25;13.00;;;;;14.71;98.32;102688.72;5043613;28;45523;-86
2021/11/06 07:50:00;;;;;;;;;20.25;13.00;;;;;14.78;98.35;102687.44;5039864;28;47845;-86
2021/11/06 07:52:26;;;;;;;;;13.75;12.75;;;;;14.82;98.58;102694.31;5046450;28;45360;-86
2021/11/06 07:54:51;;;;;;;;;18.00;17.00;;;;;14.88;98.99;102691.31;5029370;28;45318;-86
2021/11/06 07:57:17;;;;;;;;;17.75;16.75;;;;;14.96;99.45;102698.88;5059513;28;45544;-86
2021/11/06 07:59:43;;;;;;;;;17.00;14.50;;;;;14.96;99.65;102680.25;5046867;28;46441;-85
2021/11/06 08:02:08;;;;;;;;;21.25;19.25;;;;;15.08;100.00;102702.66;5028389;28;45739;-86
2021/11/06 08:04:34;;;;;;;;;24.75;18.75;;;;;15.12;99.42;102690.88;5058787;28;45609;-85
2021/11/06 08:06:59;;;;;;;;;26.50;18.00;;;;;15.28;99.46;102694.44;5047095;28;45446;-86
2021/11/06 08:09:25;;;;;;;;;23.00;19.75;;;;;15.28;99.60;102695.28;5046122;28;45478;-86
2021/11/06 08:11:50;;;;;;;;;26.00;21.00;;;;;15.45;99.34;102706.78;5036721;28;45491;-86
2021/11/06 08:14:16;;;;;;;;;24.75;22.50;;;;;15.56;99.47;102702.59;5054840;28;45394;-86
2021/11/06 08:16:43;;;;;;;;;25.50;20.00;;;;;15.76;99.71;102700.56;5041680;28;45474;-86
2021/11/06 08:19:09;;;;;;;;;23.00;20.00;;;;;16.23;99.50;102689.78;5030280;28;48226;-85
2021/11/06 08:21:34;;;;;;;;;21.00;14.50;;;;;16.46;97.00;102692.78;5023569;28;45159;-86
2021/11/06 08:24:00;;;;;;;;;18.75;18.50;;;;;16.53;95.96;102692.38;5023366;28;45699;-86
2021/11/06 08:26:26;;;;;;;;;19.25;16.00;;;;;16.58;94.10;102685.81;5023857;28;45452;-86
2021/11/06 08:28:52;;;;;;;;;16.00;14.75;;;;;16.59;93.84;102692.84;5028526;28;47429;-86
2021/11/06 08:31:18;;;;;;;;;14.50;13.00;;;;;16.60;92.18;102701.72;5060946;28;45414;-86
2021/11/06 08:33:43;;;;;;;;;19.00;16.50;;;;;16.60;92.33;102705.25;5035539;28;46450;-85
2021/11/06 08:36:09;;;;;;;;;21.50;16.75;;;;;16.55;90.81;102680.69;5055534;28;46005;-86
2021/11/06 08:38:34;;;;;;;;;20.75;17.50;;;;;16.64;91.65;102693.47;5054444;28;45412;-86
2021/11/06 08:41:01;;;;;;;;;16.75;14.75;;;;;16.71;91.49;102686.81;5056368;28;45393;-86
2021/11/06 08:43:26;;;;;;;;;15.00;14.50;;;;;16.70;86.31;102685.09;5036610;28;45547;-86
2021/11/06 08:45:53;;;;;;;;;16.75;13.50;;;;;17.24;91.00;102676.31;5047214;28;45561;-86
2021/11/06 08:48:19;;;;;;;;;14.25;14.25;;;;;18.57;86.24;102675.25;5034875;28;47263;-87
2021/11/06 08:50:45;;;;;;;;;14.75;13.00;;;;;19.86;80.02;102669.38;5050508;28;45296;-87
2021/11/06 08:53:11;;;;;;;;;11.25;11.25;;;;;21.12;80.87;102664.75;5054494;28;46564;-87
2021/11/06 08:55:36;;;;;;;;;13.00;12.00;;;;;21.14;73.17;102666.31;5047828;28;45669;-84
2021/11/06 08:58:05;;;;;;;;;12.75;11.50;;;;;20.68;69.17;102666.50;5054737;28;46424;-89
2021/11/06 09:00:35;;;;;;;;;12.00;10.25;;;;;20.07;70.29;102678.47;5030765;28;45515;-87
2021/11/06 09:03:12;;;;;;;;;12.50;11.50;;;;;19.50;67.46;102681.91;5052091;28;45438;-88
2021/11/06 09:05:41;;;;;;;;;14.25;13.00;;;;;19.25;72.37;102682.84;5051931;28;45542;-86
2021/11/06 09:08:07;;;;;;;;;13.50;10.50;;;;;19.08;70.89;102696.63;5050980;28;45535;-84
2021/11/06 09:10:36;;;;;;;;;13.00;10.25;;;;;18.91;68.54;102688.94;5060225;28;45415;-87
2021/11/06 09:13:01;;;;;;;;;16.50;13.50;;;;;18.54;70.52;102680.81;5056359;28;45372;-87
2021/11/06 09:15:27;;;;;;;;;14.25;12.75;;;;;18.45;69.43;102678.78;5057137;28;45744;-87
2021/11/06 09:17:53;;;;;;;;;11.50;10.00;;;;;18.42;70.74;102680.81;5031397;28;47586;-85
2021/11/06 09:20:19;;;;;;;;;15.50;13.75;;;;;18.34;70.70;102686.69;5059330;28;45611;-86
2021/11/06 09:22:46;;;;;;;;;18.00;14.50;;;;;18.61;71.42;102682.13;5051352;28;45407;-88
2021/11/06 09:25:14;;;;;;;;;12.00;10.75;;;;;19.03;72.62;102682.69;5051348;28;45604;-88
2021/11/06 09:27:43;;;;;;;;;13.00;12.75;;;;;19.15;69.04;102678.28;5040798;28;48151;-86
2021/11/06 09:30:26;;;;;;;;;12.50;11.25;;;;;19.17;69.99;102687.91;5053629;28;45442;-86
2021/11/06 09:34:30;;;;;;;;;;;;;;;;;;;;;
2021/11/06 09:40:24;;;;;;;;;13.00;13.00;;;;;19.81;65.11;102675.13;4931075;28;45554;-88
2021/11/06 09:42:50;;;;;;;;;14.00;10.50;;;;;19.56;67.00;102677.94;4942045;28;45735;-81
2021/11/06 09:45:57;;;;;;;;;11.75;11.75;;;;;19.85;64.43;102676.56;4939793;28;45787;-87
2021/11/06 09:49:26;;;;;;;;;14.50;11.75;;;;;20.35;65.66;102677.22;5049562;28;45388;-89
2021/11/06 09:52:33;;;;;;;;;;;;;;;;;;;;;
2021/11/06 09:58:08;;;;;;;;;;;;;;;;;;;;;
2021/11/06 10:00:59;;;;;;;;;;;;;;;;;;;;;
2021/11/06 10:03:42;;;;;;;;;10.00;10.00;;;;;21.85;57.96;102662.19;5049133;28;75171;-88
2021/11/06 10:06:47;;;;;;;;;;;;;;;;;;;;;
2021/11/06 10:10:06;;;;;;;;;;;;;;;;;;;;;
2021/11/06 10:23:26;;;;;;;;;;;;;;;;;;;;;
2021/11/06 10:30:18;;;;;;;;;;;;;;;;;;;;;
2021/11/06 10:33:25;;;;;;;;;12.75;11.75;;;;;22.28;50.76;102640.56;5009431;28;73524;-88
2021/11/06 10:36:56;;;;;;;;;;;;;;;;;;;;;
2021/11/06 11:00:25;;;;;;;;;;;;;;;;;;;;;
2021/11/06 11:03:59;;;;;;;;;;;;;;;;;;;;;
2021/11/06 11:07:14;;;;;;;;;8.75;8.50;;;;;23.14;49.35;102631.09;4979984;28;72981;-88
2021/11/06 11:10:02;;;;;;;;;8.50;8.50;;;;;23.30;49.81;102631.41;4958747;28;47148;-87
2021/11/06 11:12:30;;;;;;;;;7.00;6.25;;;;;23.27;47.03;102620.03;4978739;28;45453;-87
2021/11/06 11:14:56;;;;;;;;;9.75;9.25;;;;;23.30;46.34;102625.16;5041769;28;45451;-87
2021/11/06 11:17:52;;;;;;;;;9.25;6.00;;;;;23.19;45.08;102619.91;5063756;28;45484;-87
2021/11/06 11:20:26;;;;;;;;;10.25;6.00;;;;;23.18;48.11;102626.28;5030886;28;47408;-87
2021/11/06 11:23:14;;;;;;;;;13.75;10.50;;;;;23.42;47.67;102626.72;5046551;28;45553;-88
2021/11/06 11:25:42;;;;;;;;;13.00;10.00;;;;;23.36;47.80;102620.06;5053313;28;45324;-88
2021/11/06 11:28:09;;;;;;;;;12.25;12.25;;;;;23.65;46.06;102614.69;5059342;28;45505;-87
2021/11/06 11:30:35;;;;;;;;;13.00;11.25;;;;;23.99;44.17;102622.28;5054656;28;46405;-84
2021/11/06 11:33:02;;;;;;;;;12.50;11.50;;;;;24.10;43.51;102606.78;5062806;28;45209;-87
2021/11/06 11:35:29;;;;;;;;;12.00;9.00;;;;;24.12;45.32;102604.81;5045267;28;45439;-81
2021/11/06 11:37:59;;;;;;;;;7.50;7.50;;;;;24.11;44.07;102600.41;5063912;28;45682;-82
2021/11/06 11:40:30;;;;;;;;;9.75;8.75;;;;;24.23;45.25;102595.69;5063241;28;45418;-81
2021/11/06 11:43:11;;;;;;;;;12.00;11.25;;;;;24.30;43.17;102602.22;5058431;28;45245;-81
2021/11/06 11:45:55;;;;;;;;;8.00;7.00;;;;;24.27;44.36;102593.53;5050833;28;45543;-79
2021/11/06 11:48:23;;;;;;;;;11.00;7.50;;;;;24.26;44.73;102573.78;5041843;28;45462;-82
2021/11/06 11:50:50;;;;;;;;;7.75;7.75;;;;;24.24;44.65;102583.88;5063009;28;46296;-82
2021/11/06 11:53:29;;;;;;;;;11.50;10.00;;;;;24.28;42.52;102573.66;5056081;28;45579;-82
2021/11/06 11:55:56;;;;;;;;;13.00;11.00;;;;;24.13;44.29;102567.81;5061890;28;45352;-82
2021/11/06 11:58:26;;;;;;;;;10.25;8.25;;;;;24.07;42.19;102573.81;5057047;28;45535;-82
2021/11/06 12:00:55;;;;;;;;;6.75;6.75;;;;;23.95;43.50;102566.88;5061681;28;46143;-82
2021/11/06 12:03:41;;;;;;;;;9.75;9.00;;;;;24.01;43.10;102566.31;5054148;28;45331;-82
2021/11/06 12:06:23;;;;;;;;;9.75;8.00;;;;;24.00;42.88;102554.69;5042271;28;45360;-82
2021/11/06 12:08:53;;;;;;;;;15.75;9.75;;;;;23.94;43.17;102555.28;5042173;28;45428;-82